Time;durP1;ratioP1;P1;durP2;ratioP2;P2;SDS_P1;SDS_P2;PMS_P1;PMS_P2;Temp;Humidity;BMP_temperature;BMP_pressure;BME280_temperature;BME280_humidity;BME280_pressure;Samples;Min_cycle;Max_cycle;Signal;HPM_P1;HPM_P2
2023/12/15 00:00:38;;;;;;;16.38;9.13;;;;;;;0.17;100.00;102530.34;4962856;28;20043;-70
2023/12/15 00:03:04;;;;;;;15.55;8.65;;;;;;;0.21;100.00;102531.69;4947131;28;20039;-73
2023/12/15 00:05:33;;;;;;;17.33;8.73;;;;;;;0.25;100.00;102542.72;4965199;28;20089;-73
2023/12/15 00:07:59;;;;;;;15.48;7.78;;;;;;;0.25;100.00;102542.72;4961766;28;20752;-72
2023/12/15 00:10:25;;;;;;;14.30;7.25;;;;;;;0.28;100.00;102542.44;4945326;28;20449;-73
2023/12/15 00:12:51;;;;;;;14.75;8.70;;;;;;;0.31;100.00;102546.53;4960508;28;20038;-73
2023/12/15 00:15:16;;;;;;;15.45;8.57;;;;;;;0.32;100.00;102548.19;4962900;28;20043;-73
2023/12/15 00:17:42;;;;;;;17.77;8.45;;;;;;;0.34;100.00;102556.75;4965562;28;20061;-71
2023/12/15 00:20:08;;;;;;;13.23;7.63;;;;;;;0.34;100.00;102551.50;4962963;28;20485;-73
2023/12/15 00:22:34;;;;;;;15.65;8.38;;;;;;;0.35;100.00;102548.72;4962998;28;20117;-73
2023/12/15 00:25:00;;;;;;;16.40;8.82;;;;;;;0.35;100.00;102559.25;4949411;28;20038;-74
2023/12/15 00:27:26;;;;;;;17.27;8.55;;;;;;;0.38;100.00;102568.66;4979625;28;20948;-73
2023/12/15 00:29:52;;;;;;;17.48;9.10;;;;;;;0.39;100.00;102565.84;4944099;28;20044;-73
2023/12/15 00:32:18;;;;;;;17.98;10.20;;;;;;;0.43;100.00;102569.00;4959945;28;20043;-72
2023/12/15 00:34:44;;;;;;;17.88;9.88;;;;;;;0.45;100.00;102564.41;4964320;28;20039;-72
2023/12/15 00:37:10;;;;;;;17.52;9.52;;;;;;;0.47;100.00;102570.34;4961373;28;20035;-73
2023/12/15 00:39:36;;;;;;;16.13;9.27;;;;;;;0.50;100.00;102575.31;4950636;28;20129;-73
2023/12/15 00:42:04;;;;;;;16.02;8.57;;;;;;;0.53;100.00;102582.88;4927273;28;20489;-73
2023/12/15 00:44:32;;;;;;;16.50;8.70;;;;;;;0.56;100.00;102581.75;4954353;28;20038;-74
2023/12/15 00:47:01;;;;;;;16.58;8.38;;;;;;;0.58;100.00;102570.06;4950429;28;20121;-73
2023/12/15 00:49:27;;;;;;;17.67;9.60;;;;;;;0.61;100.00;102580.31;4943937;28;20050;-73
2023/12/15 00:51:53;;;;;;;17.88;9.80;;;;;;;0.62;100.00;102575.84;4961520;28;20059;-74
2023/12/15 00:54:18;;;;;;;18.02;9.63;;;;;;;0.65;100.00;102575.53;4962412;28;20035;-75
2023/12/15 00:56:44;;;;;;;20.92;10.07;;;;;;;0.64;100.00;102566.78;4964976;28;20043;-75
2023/12/15 00:59:09;;;;;;;21.05;9.23;;;;;;;0.66;100.00;102578.00;4931448;28;20468;-73
2023/12/15 01:01:36;;;;;;;18.85;9.60;;;;;;;0.66;100.00;102583.25;4961254;28;20158;-73
2023/12/15 01:04:02;;;;;;;18.08;9.80;;;;;;;0.66;100.00;102575.34;4961628;28;20062;-72
2023/12/15 01:06:27;;;;;;;17.35;9.15;;;;;;;0.69;100.00;102582.97;4973491;28;20063;-73
2023/12/15 01:08:53;;;;;;;19.15;9.82;;;;;;;0.69;100.00;102577.69;4957375;28;20042;-75
2023/12/15 01:11:18;;;;;;;19.58;9.98;;;;;;;0.71;100.00;102577.53;4928974;28;20047;-72
2023/12/15 01:13:44;;;;;;;20.25;10.27;;;;;;;0.73;100.00;102586.09;4964607;28;20026;-74
2023/12/15 01:16:10;;;;;;;18.13;9.80;;;;;;;0.73;100.00;102589.56;4943120;28;20473;-72
2023/12/15 01:18:36;;;;;;;19.73;9.55;;;;;;;0.74;100.00;102583.28;4934729;28;20047;-74
2023/12/15 01:21:02;;;;;;;20.25;10.30;;;;;;;0.76;100.00;102589.25;4949002;28;20045;-72
2023/12/15 01:23:29;;;;;;;20.92;9.75;;;;;;;0.77;100.00;102587.44;4964662;28;20053;-71
2023/12/15 01:25:54;;;;;;;22.35;10.45;;;;;;;0.78;100.00;102603.09;4947854;28;20034;-73
2023/12/15 01:28:20;;;;;;;19.50;11.13;;;;;;;0.78;100.00;102600.47;4971079;23;20057;-73
2023/12/15 01:30:47;;;;;;;21.50;9.98;;;;;;;0.80;100.00;102598.47;4990755;28;20046;-72
2023/12/15 01:33:13;;;;;;;21.45;10.45;;;;;;;0.83;100.00;102597.34;4993223;28;20044;-73
2023/12/15 01:35:38;;;;;;;19.42;9.52;;;;;;;0.86;100.00;102606.75;4996625;28;20392;-73
2023/12/15 01:38:04;;;;;;;20.88;8.77;;;;;;;0.88;100.00;102602.13;4977283;28;20407;-74
2023/12/15 01:40:29;;;;;;;21.17;9.15;;;;;;;0.88;100.00;102596.84;4980395;28;20100;-74
2023/12/15 01:43:01;;;;;;;20.85;9.70;;;;;;;0.90;100.00;102608.91;4998104;28;20033;-72
2023/12/15 01:45:27;;;;;;;22.83;10.13;;;;;;;0.91;100.00;102612.38;4980369;28;20041;-73
2023/12/15 01:47:54;;;;;;;18.88;9.85;;;;;;;0.93;100.00;102605.13;4982807;28;20699;-74
2023/12/15 01:50:20;;;;;;;17.15;8.85;;;;;;;0.95;100.00;102597.88;4982619;28;20038;-72
2023/12/15 01:52:46;;;;;;;21.45;10.98;;;;;;;0.95;100.00;102613.69;4982589;28;20045;-72
2023/12/15 01:55:12;;;;;;;23.80;10.90;;;;;;;0.96;100.00;102610.09;4982737;28;20116;-72
2023/12/15 01:57:38;;;;;;;;;;;;;;;0.96;100.00;102610.09;4982782;28;20034;-73
2023/12/15 02:00:06;;;;;;;18.15;8.32;;;;;;;0.98;100.00;102610.75;4972466;28;19963;-73
2023/12/15 02:02:37;;;;;;;17.15;8.60;;;;;;;0.97;100.00;102609.09;4998392;28;20041;-73
2023/12/15 02:05:04;;;;;;;18.77;8.82;;;;;;;0.98;100.00;102608.13;4995879;28;20038;-73
2023/12/15 02:07:30;;;;;;;21.08;9.90;;;;;;;1.00;100.00;102606.97;4997347;28;20031;-73
2023/12/15 02:09:57;;;;;;;19.23;9.13;;;;;;;1.01;100.00;102597.22;4999175;28;20114;-73
2023/12/15 02:12:23;;;;;;;19.73;9.93;;;;;;;1.02;100.00;102594.44;4998438;28;20100;-73
2023/12/15 02:14:49;;;;;;;19.38;9.93;;;;;;;1.01;100.00;102605.13;4984799;28;20100;-73
2023/12/15 02:17:15;;;;;;;20.88;10.40;;;;;;;1.00;100.00;102600.84;4995743;28;20107;-72
2023/12/15 02:19:43;;;;;;;17.83;8.77;;;;;;;0.99;100.00;102607.94;5002962;28;20036;-73
2023/12/15 02:22:09;;;;;;;17.75;8.98;;;;;;;1.00;100.00;102611.41;4999616;28;20045;-72
2023/12/15 02:24:34;;;;;;;18.90;9.52;;;;;;;1.00;100.00;102608.78;4996765;28;20033;-72
2023/12/15 02:27:00;;;;;;;23.00;9.93;;;;;;;1.00;100.00;102609.59;5004270;28;20196;-73
2023/12/15 02:29:27;;;;;;;;;;;;;;;1.03;100.00;102605.81;5001920;28;20036;-73
2023/12/15 02:31:53;;;;;;;20.48;9.43;;;;;;;1.04;100.00;102610.94;4997346;28;19917;-74
2023/12/15 02:34:19;;;;;;;23.67;11.23;;;;;;;1.08;100.00;102619.34;4998179;28;20038;-73
2023/12/15 02:36:45;;;;;;;21.83;9.23;;;;;;;1.09;100.00;102615.75;4997203;28;20033;-72
2023/12/15 02:39:11;;;;;;;23.05;9.55;;;;;;;1.11;100.00;102619.03;5000583;28;20140;-73
2023/12/15 02:41:37;;;;;;;23.75;10.80;;;;;;;1.14;100.00;102616.06;4999295;28;20042;-72
2023/12/15 02:44:03;;;;;;;23.73;10.90;;;;;;;1.17;100.00;102617.56;4960744;28;20645;-72
2023/12/15 02:46:28;;;;;;;24.77;10.65;;;;;;;1.19;100.00;102620.88;4966066;28;20030;-72
2023/12/15 02:48:54;;;;;;;27.67;11.80;;;;;;;1.19;100.00;102611.13;4998689;28;20034;-75
2023/12/15 02:51:27;;;;;;;27.38;11.75;;;;;;;1.25;100.00;102617.59;4998821;28;20054;-72
2023/12/15 02:53:53;;;;;;;25.13;11.95;;;;;;;1.27;100.00;102619.06;4997399;28;20045;-72
2023/12/15 02:56:19;;;;;;;26.48;11.45;;;;;;;1.30;100.00;102620.56;4982471;28;20559;-72
2023/12/15 02:58:45;;;;;;;26.73;11.30;;;;;;;1.31;100.00;102617.75;4977684;28;20044;-72
2023/12/15 03:01:10;;;;;;;25.50;11.45;;;;;;;1.34;100.00;102606.03;4997519;28;20113;-72
2023/12/15 03:03:36;;;;;;;24.45;10.65;;;;;;;1.35;100.00;102608.53;4996912;28;20121;-73
2023/12/15 03:06:02;;;;;;;25.35;11.52;;;;;;;1.36;100.00;102615.47;4995867;28;20034;-73
2023/12/15 03:08:28;;;;;;;27.63;11.10;;;;;;;1.40;100.00;102615.13;4993353;28;20406;-73
2023/12/15 03:10:57;;;;;;;24.48;11.43;;;;;;;1.44;100.00;102619.09;4994972;28;20038;-73
2023/12/15 03:13:30;;;;;;;29.73;11.90;;;;;;;1.47;100.00;102614.31;4993391;28;20496;-73
2023/12/15 03:16:03;;;;;;;;;;;;;;;1.52;100.00;102624.38;4977688;28;20124;-73
2023/12/15 03:18:30;;;;;;;23.42;9.95;;;;;;;1.54;100.00;102625.03;4969099;28;19917;-73
2023/12/15 03:21:01;;;;;;;28.52;11.65;;;;;;;1.60;100.00;102624.38;4992530;28;20045;-72
2023/12/15 03:23:27;;;;;;;26.75;10.70;;;;;;;1.64;100.00;102625.72;4956902;28;20034;-72
2023/12/15 03:25:53;;;;;;;31.08;11.75;;;;;;;1.69;100.00;102622.56;4982797;28;20038;-72
2023/12/15 03:28:19;;;;;;;28.67;12.05;;;;;;;1.73;100.00;102623.91;4992319;28;20053;-72
2023/12/15 03:30:45;;;;;;;31.33;12.57;;;;;;;1.75;100.00;102620.09;5001700;28;20029;-73
2023/12/15 03:33:10;;;;;;;30.25;11.93;;;;;;;1.78;100.00;102627.72;5005574;28;20448;-71
2023/12/15 03:35:36;;;;;;;30.40;12.68;;;;;;;1.82;100.00;102629.00;4969331;28;20062;-72
2023/12/15 03:38:03;;;;;;;27.35;12.38;;;;;;;1.86;100.00;102630.34;5003688;28;20129;-72
2023/12/15 03:40:29;;;;;;;28.58;10.88;;;;;;;1.88;100.00;102628.34;4985856;28;20399;-70
2023/12/15 03:42:55;;;;;;;33.97;13.05;;;;;;;1.90;100.00;102626.38;5002180;28;20030;-71
2023/12/15 03:45:21;;;;;;;28.67;11.35;;;;;;;1.94;100.00;102620.75;5001471;28;20034;-72
2023/12/15 03:47:46;;;;;;;30.83;12.40;;;;;;;1.96;100.00;102629.34;5003697;28;20606;-71
2023/12/15 03:50:16;;;;;;;26.23;11.32;;;;;;;1.98;100.00;102622.09;4999628;28;20863;-70
2023/12/15 03:52:42;;;;;;;30.33;12.18;;;;;;;2.03;100.00;102631.16;5005593;28;20057;-70
2023/12/15 03:55:08;;;;;;;27.90;12.02;;;;;;;2.06;100.00;102635.28;5003269;28;20029;-70
2023/12/15 03:57:34;;;;;;;26.08;11.73;;;;;;;2.10;100.00;102620.72;4996764;28;20491;-70
2023/12/15 03:59:59;;;;;;;27.77;12.52;;;;;;;2.12;100.00;102624.06;5003052;28;20054;-71
2023/12/15 04:02:25;;;;;;;27.50;11.85;;;;;;;2.14;100.00;102622.06;5004002;28;20042;-71
2023/12/15 04:04:51;;;;;;;28.95;12.18;;;;;;;2.15;100.00;102623.69;4995011;28;20041;-70
2023/12/15 04:07:16;;;;;;;32.05;11.82;;;;;;;2.16;100.00;102625.34;4998648;28;20041;-71
2023/12/15 04:09:42;;;;;;;30.55;12.35;;;;;;;2.17;100.00;102619.91;5003014;28;20504;-70
2023/12/15 04:12:08;;;;;;;27.58;12.18;;;;;;;2.18;100.00;102618.91;4997880;28;20557;-70
2023/12/15 04:14:34;;;;;;;31.10;13.43;;;;;;;2.21;100.00;102620.38;4985451;28;20039;-70
2023/12/15 04:17:00;;;;;;;31.42;12.13;;;;;;;2.24;100.00;102611.31;5006849;28;20026;-69
2023/12/15 04:19:26;;;;;;;32.25;13.50;;;;;;;2.27;100.00;102617.06;5000185;28;20120;-71
2023/12/15 04:21:52;;;;;;;34.50;13.27;;;;;;;2.32;100.00;102624.50;4998101;28;20056;-71
2023/12/15 04:24:18;;;;;;;35.42;13.85;;;;;;;2.36;100.00;102623.97;4995540;28;20038;-71
2023/12/15 04:26:44;;;;;;;31.17;12.20;;;;;;;2.39;100.00;102626.31;4996941;28;20492;-70
2023/12/15 04:29:10;;;;;;;34.00;12.85;;;;;;;2.44;100.00;102634.56;5008898;28;20033;-71
2023/12/15 04:31:36;;;;;;;34.00;13.93;;;;;;;2.49;100.00;102635.84;5001508;28;20140;-72
2023/12/15 04:34:02;;;;;;;31.95;14.02;;;;;;;2.54;100.00;102642.28;4983543;28;20145;-72
2023/12/15 04:36:28;;;;;;;34.00;13.85;;;;;;;2.57;100.00;102646.41;4997681;28;20122;-72
2023/12/15 04:38:54;;;;;;;36.17;15.13;;;;;;;2.60;100.00;102641.63;5001913;28;20034;-71
2023/12/15 04:41:22;;;;;;;34.28;13.88;;;;;;;2.63;100.00;102654.50;4983316;28;20515;-71
2023/12/15 04:43:47;;;;;;;38.97;15.07;;;;;;;2.67;100.00;102652.34;5004370;28;20038;-72
2023/12/15 04:46:27;;;;;;;41.72;15.20;;;;;;;2.70;100.00;102649.34;5003110;28;20038;-71
2023/12/15 04:48:55;;;;;;;37.67;15.35;;;;;;;2.72;100.00;102663.25;4991774;28;20030;-71
2023/12/15 04:51:20;;;;;;;40.63;14.07;;;;;;;2.74;100.00;102664.72;4986993;28;20034;-73
2023/12/15 04:53:47;;;;;;;37.53;14.45;;;;;;;2.78;100.00;102665.22;4999827;28;20048;-72
2023/12/15 04:56:14;;;;;;;37.05;14.35;;;;;;;2.81;100.00;102667.50;4984396;28;20510;-72
2023/12/15 04:58:40;;;;;;;36.80;14.10;;;;;;;2.85;100.00;102683.88;4988748;28;20030;-73
2023/12/15 05:01:13;;;;;;;35.17;14.23;;;;;;;2.86;100.00;102681.06;4987312;28;20570;-73
2023/12/15 05:03:42;;;;;;;;;;;;;;;2.89;100.00;102674.59;4987202;28;20042;-72
2023/12/15 05:06:21;;;;;;;37.15;13.57;;;;;;;2.89;100.00;102693.94;5000721;28;20360;-73
2023/12/15 05:08:48;;;;;;;41.53;14.25;;;;;;;2.92;100.00;102698.06;4985960;28;20034;-71
2023/12/15 05:11:14;;;;;;;;;;;;;;;2.92;100.00;102704.19;4984234;28;20033;-71
2023/12/15 05:13:39;;;;;;;37.60;13.25;;;;;;;2.94;100.00;102707.47;4999229;28;19918;-72
2023/12/15 05:16:06;;;;;;;36.80;13.70;;;;;;;2.95;100.00;102703.00;4997109;28;20044;-71
2023/12/15 05:18:32;;;;;;;38.15;13.73;;;;;;;2.97;100.00;102698.38;4997909;28;20025;-73
2023/12/15 05:20:59;;;;;;;37.65;13.52;;;;;;;2.98;100.00;102700.88;4996692;28;20141;-72
2023/12/15 05:23:24;;;;;;;38.47;13.18;;;;;;;2.99;100.00;102713.09;4982364;28;20038;-73
2023/12/15 05:25:50;;;;;;;39.63;14.68;;;;;;;3.00;100.00;102714.75;5000570;28;20030;-73
2023/12/15 05:28:15;;;;;;;38.42;14.05;;;;;;;3.01;100.00;102715.56;4999666;28;20518;-73
2023/12/15 05:30:41;;;;;;;38.03;14.05;;;;;;;3.01;100.00;102718.22;4998979;28;20096;-72
2023/12/15 05:33:07;;;;;;;39.97;14.30;;;;;;;3.01;100.00;102719.03;4997713;28;20049;-72
2023/12/15 05:35:33;;;;;;;40.33;14.40;;;;;;;3.03;100.00;102723.34;4982778;28;20084;-72
2023/12/15 05:38:00;;;;;;;41.58;13.65;;;;;;;3.03;100.00;102733.91;4975423;28;20116;-71
2023/12/15 05:40:25;;;;;;;35.60;13.20;;;;;;;3.03;100.00;102741.84;5000215;28;20517;-72
2023/12/15 05:42:51;;;;;;;39.00;13.50;;;;;;;3.05;100.00;102737.22;4995132;28;20488;-73
2023/12/15 05:45:17;;;;;;;43.47;14.05;;;;;;;3.05;100.00;102745.16;4979786;28;20479;-72
2023/12/15 05:47:43;;;;;;;41.20;14.00;;;;;;;3.06;100.00;102738.88;5001111;28;20128;-72
2023/12/15 05:50:10;;;;;;;38.80;13.50;;;;;;;3.08;100.00;102736.88;5000842;28;20479;-71
2023/12/15 05:52:36;;;;;;;42.20;14.60;;;;;;;3.08;100.00;102744.84;4984714;28;20061;-71
2023/12/15 05:55:02;;;;;;;48.08;14.40;;;;;;;3.08;100.00;102743.00;4999210;28;20784;-72
2023/12/15 05:57:28;;;;;;;38.17;12.88;;;;;;;3.10;100.00;102737.53;4995321;28;20037;-73
2023/12/15 05:59:54;;;;;;;42.20;14.18;;;;;;;3.10;100.00;102734.88;4981439;28;20070;-72
2023/12/15 06:02:20;;;;;;;39.72;12.85;;;;;;;3.10;100.00;102735.72;4988246;28;20030;-72
2023/12/15 06:04:45;;;;;;;44.22;13.65;;;;;;;3.11;100.00;102737.34;4993053;28;20025;-72
2023/12/15 06:07:11;;;;;;;42.65;12.95;;;;;;;3.12;100.00;102743.50;4995072;28;21530;-72
2023/12/15 06:09:37;;;;;;;44.40;14.07;;;;;;;3.13;100.00;102734.56;5000009;28;20033;-71
2023/12/15 06:12:04;;;;;;;38.80;13.50;;;;;;;3.14;100.00;102741.50;4998945;28;20034;-72
2023/12/15 06:14:29;;;;;;;34.10;12.18;;;;;;;3.15;100.00;102738.69;4982835;28;20038;-72
2023/12/15 06:16:55;;;;;;;32.63;11.95;;;;;;;3.15;100.00;102736.03;5001730;28;20091;-72
2023/12/15 06:19:21;;;;;;;37.00;12.38;;;;;;;3.18;100.00;102743.63;4995329;28;20038;-71
2023/12/15 06:21:47;;;;;;;38.95;12.93;;;;;;;3.19;100.00;102737.34;4995408;28;21459;-72
2023/12/15 06:24:12;;;;;;;36.13;13.35;;;;;;;3.20;100.00;102746.13;4995132;28;20053;-72
2023/12/15 06:26:38;;;;;;;36.63;12.50;;;;;;;3.20;100.00;102746.94;4994877;28;20105;-73
2023/12/15 06:29:03;;;;;;;38.03;13.00;;;;;;;3.21;100.00;102748.59;4998373;28;20268;-71
2023/12/15 06:31:29;;;;;;;40.90;13.70;;;;;;;3.23;100.00;102761.66;4983864;28;20506;-73
2023/12/15 06:33:55;;;;;;;36.42;13.13;;;;;;;3.23;100.00;102762.47;5000375;28;20499;-73
2023/12/15 06:36:21;;;;;;;35.60;12.75;;;;;;;3.25;100.00;102764.94;4999323;28;20044;-72
2023/12/15 06:38:47;;;;;;;35.33;11.65;;;;;;;3.26;100.00;102761.31;4987190;28;20037;-72
2023/12/15 06:41:13;;;;;;;29.33;10.73;;;;;;;3.27;100.00;102768.25;4978951;28;20435;-72
2023/12/15 06:43:39;;;;;;;;;;;;;;;3.27;100.00;102757.66;4999713;28;20033;-72
2023/12/15 06:46:05;;;;;;;32.00;11.30;;;;;;;3.26;100.00;102767.44;4985565;28;19940;-72
2023/12/15 06:48:31;;;;;;;39.88;11.77;;;;;;;3.28;100.00;102759.31;4999589;28;20768;-72
2023/12/15 06:50:57;;;;;;;36.95;12.75;;;;;;;3.28;100.00;102762.78;5002849;28;20036;-72
2023/12/15 06:53:22;;;;;;;38.42;12.77;;;;;;;3.29;100.00;102759.13;4980829;28;20041;-71
2023/12/15 06:55:48;;;;;;;39.10;12.93;;;;;;;3.31;100.00;102761.59;4999442;28;20076;-71
2023/12/15 06:58:14;;;;;;;42.70;13.60;;;;;;;3.31;100.00;102764.25;4981446;28;20045;-72
2023/12/15 07:00:40;;;;;;;39.75;12.93;;;;;;;3.32;100.00;102755.34;4991862;28;20137;-72
2023/12/15 07:03:06;;;;;;;39.95;13.07;;;;;;;3.36;100.00;102761.09;4996649;28;20412;-72
2023/12/15 07:05:31;;;;;;;42.08;13.77;;;;;;;3.37;100.00;102758.28;4985675;28;20126;-72
2023/12/15 07:07:58;;;;;;;46.88;13.20;;;;;;;3.38;100.00;102764.41;5000354;28;20124;-72
2023/12/15 07:10:23;;;;;;;49.15;14.25;;;;;;;3.40;100.00;102768.53;4992567;28;20034;-71
2023/12/15 07:12:49;;;;;;;43.67;13.68;;;;;;;3.41;100.00;102770.19;4995169;28;20042;-72
2023/12/15 07:15:15;;;;;;;55.58;15.75;;;;;;;3.43;100.00;102770.84;4983547;28;20675;-72
2023/12/15 07:17:41;;;;;;;52.75;13.52;;;;;;;3.44;100.00;102772.47;5001142;28;20038;-72
2023/12/15 07:20:08;;;;;;;54.30;14.98;;;;;;;3.47;100.00;102774.78;4978990;28;20994;-72
2023/12/15 07:22:34;;;;;;;52.55;15.05;;;;;;;3.50;100.00;102779.75;4994602;28;20031;-72
2023/12/15 07:25:00;;;;;;;60.45;15.32;;;;;;;3.53;100.00;102775.94;5002626;28;20034;-72
2023/12/15 07:27:26;;;;;;;63.10;15.68;;;;;;;3.55;100.00;102787.19;4997613;28;20088;-72
2023/12/15 07:29:53;;;;;;;65.50;16.27;;;;;;;3.58;100.00;102796.59;4991642;23;20051;-72
2023/12/15 07:32:19;;;;;;;66.18;17.25;;;;;;;3.56;100.00;102797.59;4964591;28;20044;-73
2023/12/15 07:34:45;;;;;;;67.68;16.27;;;;;;;3.60;100.00;102803.38;4988051;28;20038;-72
2023/12/15 07:37:11;;;;;;;65.45;16.77;;;;;;;3.64;100.00;102806.50;4947407;28;20044;-73
2023/12/15 07:39:36;;;;;;;58.97;15.27;;;;;;;3.64;100.00;102806.50;4976748;28;20070;-76
2023/12/15 07:42:02;;;;;;;71.82;15.93;;;;;;;3.67;100.00;102819.41;4945999;28;20073;-73
2023/12/15 07:44:28;;;;;;;65.97;16.85;;;;;;;3.69;100.00;102822.72;4962456;28;20027;-73
2023/12/15 07:46:55;;;;;;;60.03;15.70;;;;;;;3.68;100.00;102824.53;4961392;28;20673;-73
2023/12/15 07:49:25;;;;;;;73.07;16.70;;;;;;;3.71;100.00;102820.72;4960048;28;20106;-73
2023/12/15 07:51:51;;;;;;;64.80;15.90;;;;;;;3.73;100.00;102822.22;4959226;28;20077;-73
2023/12/15 07:54:20;;;;;;;73.78;17.40;;;;;;;3.76;100.00;102821.03;4960967;28;20026;-73
2023/12/15 07:56:46;;;;;;;60.72;16.05;;;;;;;3.76;100.00;102835.09;4964642;28;20093;-72
2023/12/15 07:59:12;;;;;;;64.60;17.20;;;;;;;3.78;100.00;102842.88;4953584;28;20067;-73
2023/12/15 08:01:38;;;;;;;61.17;16.10;;;;;;;3.81;100.00;102842.53;4960143;28;20420;-72
2023/12/15 08:04:05;;;;;;;59.08;15.13;;;;;;;3.84;100.00;102850.13;4959645;28;20121;-73
2023/12/15 08:06:31;;;;;;;62.72;16.65;;;;;;;3.83;100.00;102854.59;4963334;28;20050;-73
2023/12/15 08:08:58;;;;;;;60.00;14.32;;;;;;;3.83;100.00;102854.59;4965136;28;20046;-74
2023/12/15 08:11:24;;;;;;;59.80;16.27;;;;;;;3.85;100.00;102849.13;4945204;28;21119;-74
2023/12/15 08:13:50;;;;;;;70.88;17.30;;;;;;;3.88;100.00;102846.16;4967719;28;20556;-73
2023/12/15 08:16:15;;;;;;;79.15;18.60;;;;;;;3.91;100.00;102839.66;4934940;28;20045;-72
2023/12/15 08:18:42;;;;;;;67.13;15.88;;;;;;;3.94;100.00;102845.44;4964938;28;20518;-72
2023/12/15 08:21:07;;;;;;;66.53;16.63;;;;;;;3.96;100.00;102835.50;4945012;28;20051;-73
2023/12/15 08:23:33;;;;;;;65.68;17.42;;;;;;;3.98;100.00;102845.91;4963486;28;20123;-72
2023/12/15 08:25:59;;;;;;;59.05;15.80;;;;;;;4.02;100.00;102841.94;4966882;28;20492;-72
2023/12/15 08:28:25;;;;;;;68.47;16.48;;;;;;;4.03;100.00;102847.06;4934328;28;20511;-72
2023/12/15 08:30:52;;;;;;;58.85;16.50;;;;;;;4.06;100.00;102852.03;4948269;28;20523;-72
2023/12/15 08:33:17;;;;;;;;;;;;;;;4.09;100.00;102849.00;4948108;28;20046;-73
2023/12/15 08:35:43;;;;;;;53.50;16.08;;;;;;;4.14;100.00;102852.97;4968779;28;19933;-74
2023/12/15 08:38:09;;;;;;;67.05;15.52;;;;;;;4.17;100.00;102860.56;4967357;28;20762;-71
2023/12/15 08:40:35;;;;;;;60.22;16.70;;;;;;;4.23;100.00;102873.13;4948577;28;20030;-72
2023/12/15 08:43:01;;;;;;;56.45;16.25;;;;;;;4.27;100.00;102871.78;4962151;28;20043;-73
2023/12/15 08:45:27;;;;;;;64.95;17.10;;;;;;;4.31;100.00;102878.38;4959323;28;20065;-73
2023/12/15 08:47:53;;;;;;;52.40;15.65;;;;;;;4.34;100.00;102878.03;4962440;28;20077;-74
2023/12/15 08:50:20;;;;;;;66.32;18.00;;;;;;;4.38;100.00;102885.44;4965720;28;20796;-74
2023/12/15 08:52:46;;;;;;;65.70;17.50;;;;;;;4.41;100.00;102894.09;4947926;28;20050;-74
2023/12/15 08:55:12;;;;;;;53.90;16.13;;;;;;;4.47;100.00;102899.50;4979689;28;20038;-74
2023/12/15 08:57:38;;;;;;;;;;;;;;;4.53;100.00;102901.44;4956325;28;20042;-75
2023/12/15 09:00:04;;;;;;;50.72;13.82;;;;;;;4.51;100.00;102911.41;4961778;28;19937;-72
2023/12/15 09:02:30;;;;;;;42.97;12.90;;;;;;;4.54;100.00;102911.06;4951058;28;20041;-73
2023/12/15 09:04:57;;;;;;;66.57;16.80;;;;;;;4.56;100.00;102918.84;4952989;28;20511;-71
2023/12/15 09:07:23;;;;;;;57.83;16.13;;;;;;;4.57;100.00;102908.03;4931516;28;20042;-72
2023/12/15 09:09:50;;;;;;;61.92;15.10;;;;;;;4.60;100.00;102909.50;4950660;28;20042;-73
2023/12/15 09:12:16;;;;;;;60.33;16.50;;;;;;;4.62;100.00;102929.59;4965226;28;20122;-73
2023/12/15 09:14:42;;;;;;;50.63;15.80;;;;;;;4.64;100.00;102926.75;4961319;28;20038;-71
2023/12/15 09:17:11;;;;;;;52.92;14.93;;;;;;;4.66;100.00;102930.88;4971963;28;20513;-73
2023/12/15 09:19:38;;;;;;;60.08;16.05;;;;;;;4.66;100.00;102936.16;4964217;28;20485;-71
2023/12/15 09:22:05;;;;;;;54.45;16.30;;;;;;;4.72;100.00;102939.94;4962735;28;20053;-74
2023/12/15 09:24:31;;;;;;;58.90;17.60;;;;;;;4.74;100.00;102947.72;4963485;28;20038;-77
2023/12/15 09:26:57;;;;;;;;;;;;;;;4.77;100.00;102950.88;4971608;28;20034;-71
2023/12/15 09:29:22;;;;;;;56.88;15.25;;;;;;;4.77;100.00;102953.53;4963887;28;19917;-74
2023/12/15 09:31:48;;;;;;;43.67;14.43;;;;;;;4.75;100.00;102960.84;4966031;28;20046;-73
2023/12/15 09:34:13;;;;;;;52.50;16.05;;;;;;;4.82;100.00;102950.34;4961025;28;20054;-74
2023/12/15 09:36:39;;;;;;;56.55;15.70;;;;;;;4.84;100.00;102954.47;4953957;28;20035;-74
2023/12/15 09:39:05;;;;;;;54.50;15.15;;;;;;;4.87;100.00;102935.50;4961963;28;20091;-72
2023/12/15 09:41:32;;;;;;;55.67;17.50;;;;;;;4.91;100.00;102958.06;4964453;28;20042;-73
2023/12/15 09:43:57;;;;;;;52.85;14.75;;;;;;;4.95;100.00;102981.63;4948863;28;20154;-72
2023/12/15 09:46:23;;;;;;;61.55;17.60;;;;;;;4.99;100.00;102973.09;4930574;28;20125;-72
2023/12/15 09:48:50;;;;;;;58.60;16.58;;;;;;;5.01;100.00;102981.72;4963600;28;20031;-75
2023/12/15 09:51:22;;;;;;;62.60;17.50;;;;;;;5.05;100.00;102988.34;4966609;28;20762;-75
2023/12/15 09:53:49;;;;;;;60.55;16.45;;;;;;;5.09;100.00;102986.97;4962521;28;20034;-71
2023/12/15 09:56:15;;;;;;;62.53;16.17;;;;;;;5.12;100.00;102997.25;4965295;28;20112;-72
2023/12/15 09:58:41;;;;;;;67.93;18.25;;;;;;;5.15;100.00;103004.88;4963528;28;20039;-72
2023/12/15 10:01:07;;;;;;;66.28;18.02;;;;;;;5.17;100.00;102996.72;4964251;28;20529;-73
2023/12/15 10:03:32;;;;;;;;;;;;;;;5.20;100.00;103001.66;4948957;28;20809;-71
2023/12/15 10:05:58;;;;;;;58.40;15.00;;;;;;;5.23;100.00;103003.16;4981290;28;19929;-72
2023/12/15 10:08:24;;;;;;;62.00;19.10;;;;;;;5.24;100.00;103002.97;4951652;28;20057;-75
2023/12/15 10:10:51;;;;;;;59.40;18.00;;;;;;;5.27;100.00;102999.94;4945305;28;20046;-74
2023/12/15 10:13:17;;;;;;;59.10;17.60;;;;;;;5.29;100.00;102989.97;4964300;28;20500;-73
2023/12/15 10:15:43;;;;;;;61.65;17.13;;;;;;;5.32;100.00;102991.44;4934707;28;20043;-75
2023/12/15 10:18:12;;;;;;;54.63;16.48;;;;;;;5.34;100.00;102989.41;4951205;28;20035;-73
2023/12/15 10:20:40;;;;;;;67.05;17.95;;;;;;;5.37;100.00;102981.09;4946699;28;20031;-71
2023/12/15 10:23:07;;;;;;;70.55;18.35;;;;;;;5.41;100.00;102987.69;4959614;28;20471;-72
2023/12/15 10:25:33;;;;;;;63.80;16.90;;;;;;;5.43;100.00;102991.03;4959995;28;20568;-71
2023/12/15 10:27:59;;;;;;;54.55;15.70;;;;;;;5.47;100.00;102992.28;4933855;28;20093;-74
2023/12/15 10:30:25;;;;;;;59.50;16.80;;;;;;;5.51;100.00;102998.91;4958018;28;20043;-74
2023/12/15 10:32:53;;;;;;;61.60;16.80;;;;;;;5.54;100.00;103001.19;4965328;28;20580;-72
2023/12/15 10:35:22;;;;;;;58.40;17.02;;;;;;;5.56;100.00;103007.16;4961544;28;20487;-72
2023/12/15 10:37:50;;;;;;;59.05;17.80;;;;;;;5.59;100.00;103012.13;4954262;28;20030;-72
2023/12/15 10:40:15;;;;;;;61.00;16.88;;;;;;;5.63;100.00;103024.06;4958913;28;20046;-73
2023/12/15 10:42:41;;;;;;;60.65;16.35;;;;;;;5.64;100.00;103012.41;4965102;28;20047;-71
2023/12/15 10:45:09;;;;;;;;;;;;;;;5.69;100.00;103011.84;4968022;28;20382;-72
2023/12/15 10:47:35;;;;;;;61.40;16.55;;;;;;;5.72;100.00;103014.97;4963551;28;19922;-72
2023/12/15 10:50:01;;;;;;;56.58;17.38;;;;;;;5.75;100.00;103016.44;4942310;28;20038;-72
2023/12/15 10:52:28;;;;;;;51.40;15.43;;;;;;;5.78;100.00;103012.59;4962982;28;20035;-73
2023/12/15 10:54:55;;;;;;;54.13;15.45;;;;;;;5.80;100.00;103014.06;4962129;28;20089;-73
2023/12/15 10:57:21;;;;;;;63.05;17.08;;;;;;;5.84;100.00;103010.03;4946875;28;20101;-72
2023/12/15 10:59:49;;;;;;;;;;;;;;;5.88;100.00;103011.31;4963187;28;20034;-74
2023/12/15 11:02:18;;;;;;;57.38;17.38;;;;;;;5.88;100.00;103005.16;4984168;28;19929;-73
2023/12/15 11:04:48;;;;;;;56.92;16.33;;;;;;;5.93;100.00;103002.81;4954961;28;20412;-74
2023/12/15 11:07:14;;;;;;;52.92;15.85;;;;;;;5.95;100.00;103004.28;4950763;28;20592;-73
2023/12/15 11:09:41;;;;;;;48.47;15.13;;;;;;;5.98;100.00;103003.94;4964444;28;20041;-72